Time;durP1;ratioP1;P1;durP2;ratioP2;P2;SDS_P1;SDS_P2;PMS_P1;PMS_P2;Temp;Humidity;BMP_temperature;BMP_pressure;BME280_temperature;BME280_humidity;BME280_pressure;Samples;Min_cycle;Max_cycle;Signal;HPM_P1;HPM_P2
2022/06/04 00:01:59;;;;;;;8.93;3.30;;;12.30;99.90;;;;;;4243513;28;20063;-83
2022/06/04 00:03:59;;;;;;;7.47;3.10;;;12.30;99.90;;;;;;4243802;28;20232;-83
2022/06/04 00:06:00;;;;;;;6.95;3.35;;;12.30;99.90;;;;;;4244765;28;20051;-83
2022/06/04 00:08:03;;;;;;;8.07;3.70;;;12.20;99.90;;;;;;4228199;28;20072;-82
2022/06/04 00:17:14;;;;;;;11.45;3.80;;;12.10;99.90;;;;;;4234706;28;20054;-83
2022/06/04 00:19:16;;;;;;;7.72;4.32;;;12.10;99.90;;;;;;4233366;28;20044;-83
2022/06/04 00:21:17;;;;;;;8.05;4.57;;;12.10;99.90;;;;;;4233260;28;20050;-83
2022/06/04 00:23:18;;;;;;;8.95;4.28;;;12.10;99.90;;;;;;4240548;27;20070;-83
2022/06/04 00:25:19;;;;;;;11.43;5.18;;;12.10;99.90;;;;;;4250604;27;20043;-83
2022/06/04 00:27:21;;;;;;;13.07;4.50;;;12.00;99.90;;;;;;4251019;27;20046;-83
2022/06/04 00:29:21;;;;;;;8.10;4.30;;;12.00;99.90;;;;;;4232449;28;20384;-83
2022/06/04 00:31:22;;;;;;;10.57;4.15;;;12.00;99.90;;;;;;4231814;28;20081;-83
2022/06/04 00:33:24;;;;;;;8.68;4.50;;;12.00;99.90;;;;;;4250356;27;20395;-83
2022/06/04 00:35:26;;;;;;;8.18;3.90;;;11.10;99.90;;;;;;4250675;27;20041;-83
2022/06/04 00:37:26;;;;;;;9.27;4.45;;;12.00;99.90;;;;;;4232531;28;20087;-83
2022/06/04 00:39:28;;;;;;;8.23;4.50;;;12.00;99.90;;;;;;4250169;27;20047;-83
2022/06/04 00:41:51;;;;;;;10.77;4.40;;;11.90;99.90;;;;;;4250661;27;20051;-83
2022/06/04 00:44:01;;;;;;;11.18;3.90;;;11.90;99.90;;;;;;4249937;27;20047;-83
2022/06/04 00:46:21;;;;;;;9.57;5.03;;;11.90;99.90;;;;;;4250864;27;20088;-83
2022/06/04 00:48:23;;;;;;;10.10;4.47;;;11.90;99.90;;;;;;4251362;27;20043;-83
2022/06/04 00:50:28;;;;;;;9.30;4.78;;;11.80;99.90;;;;;;4232992;28;20051;-83
2022/06/04 00:52:29;;;;;;;14.02;5.00;;;11.80;99.90;;;;;;4251008;27;20094;-83
2022/06/04 00:54:30;;;;;;;8.13;4.28;;;11.70;99.90;;;;;;4250289;27;20043;-83
2022/06/04 00:56:59;;;;;;;8.25;4.22;;;11.70;99.90;;;;;;4249912;27;20035;-83
2022/06/04 00:59:29;;;;;;;7.60;4.28;;;11.70;99.90;;;;;;4250607;27;20088;-83
2022/06/04 01:01:43;;;;;;;9.95;4.43;;;11.70;99.90;;;;;;4250678;27;20043;-83
2022/06/04 01:04:47;;;;;;;11.23;4.22;;;11.60;99.90;;;;;;4232725;28;20059;-83
2022/06/04 01:06:57;;;;;;;8.30;4.18;;;11.60;99.90;;;;;;4250548;27;20102;-83
2022/06/04 01:09:29;;;;;;;9.27;3.88;;;11.60;99.90;;;;;;4251454;27;20526;-83
2022/06/04 01:12:10;;;;;;;9.63;3.55;;;11.60;99.90;;;;;;4250899;27;20043;-83
2022/06/04 01:14:33;;;;;;;15.23;5.25;;;11.60;99.90;;;;;;4251221;27;20475;-83
2022/06/04 01:16:55;;;;;;;12.60;3.83;;;11.60;99.90;;;;;;4249684;27;20060;-82
2022/06/04 01:19:10;;;;;;;8.38;3.63;;;11.60;99.90;;;;;;4249871;27;20086;-83
2022/06/04 01:21:25;;;;;;;7.13;3.40;;;11.60;99.90;;;;;;4249345;27;20055;-83
2022/06/04 01:23:48;;;;;;;12.02;3.83;;;11.60;99.90;;;;;;4249768;27;20043;-83
2022/06/04 01:26:17;;;;;;;10.25;3.72;;;11.50;99.90;;;;;;4250288;27;20039;-83
2022/06/04 01:28:18;;;;;;;8.07;3.15;;;11.50;99.90;;;;;;4232585;28;20046;-82
2022/06/04 01:30:45;;;;;;;10.55;4.50;;;11.50;99.90;;;;;;4249129;27;20047;-82
2022/06/04 01:32:54;;;;;;;8.73;3.95;;;11.40;99.90;;;;;;4232182;28;20075;-82
2022/06/04 01:35:06;;;;;;;6.43;3.38;;;11.40;99.90;;;;;;4251317;27;20035;-83
2022/06/04 01:37:18;;;;;;;7.90;3.95;;;11.60;99.90;;;;;;4238734;28;20044;-83
2022/06/04 01:39:25;;;;;;;5.72;3.35;;;11.40;99.90;;;;;;4232927;28;20044;-83
2022/06/04 01:41:37;;;;;;;9.32;3.50;;;11.30;99.90;;;;;;4233240;28;20051;-83
2022/06/04 01:43:52;;;;;;;10.73;3.33;;;11.30;99.90;;;;;;4235098;28;20044;-83
2022/06/04 01:45:57;;;;;;;7.88;3.53;;;11.30;99.90;;;;;;4236141;28;20065;-83
2022/06/04 01:48:01;;;;;;;10.13;4.05;;;11.20;99.90;;;;;;4216348;28;20122;-83
2022/06/04 01:50:04;;;;;;;8.00;3.42;;;11.20;99.90;;;;;;4232643;28;20047;-83
2022/06/04 01:52:23;;;;;;;7.38;3.05;;;11.20;99.90;;;;;;4215144;28;20076;-83
2022/06/04 01:54:28;;;;;;;;;;;11.10;99.90;;;;;;4234024;28;20126;-83
2022/06/04 01:56:37;;;;;;;7.47;2.88;;;11.10;99.90;;;;;;4233362;28;19919;-83
2022/06/04 01:58:45;;;;;;;8.80;4.05;;;11.00;99.90;;;;;;4199972;28;20061;-83
2022/06/04 02:01:03;;;;;;;9.85;2.97;;;11.00;99.90;;;;;;4234408;28;20497;-83
2022/06/04 02:03:31;;;;;;;7.18;3.55;;;11.00;99.90;;;;;;4235740;28;20047;-83
2022/06/04 02:05:56;;;;;;;5.95;2.85;;;10.90;99.90;;;;;;4237017;28;20055;-83
2022/06/04 02:07:59;;;;;;;7.13;3.30;;;10.90;99.90;;;;;;4236240;28;20104;-83
2022/06/04 02:10:04;;;;;;;10.00;3.20;;;10.90;99.90;;;;;;4236020;28;20054;-83
2022/06/04 02:12:07;;;;;;;7.63;3.10;;;10.80;99.90;;;;;;4236211;28;20048;-83
2022/06/04 02:14:08;;;;;;;9.90;3.75;;;10.80;99.90;;;;;;4235732;28;20047;-83
2022/06/04 02:16:31;;;;;;;7.13;3.22;;;10.80;99.90;;;;;;4236046;28;20096;-83
2022/06/04 02:18:32;;;;;;;5.38;2.95;;;10.80;99.90;;;;;;4235936;28;20048;-83
2022/06/04 02:20:33;;;;;;;6.95;3.85;;;10.80;99.90;;;;;;4236854;28;20519;-83
2022/06/04 02:22:34;;;;;;;9.30;3.63;;;10.80;99.90;;;;;;4237039;28;20051;-83
2022/06/04 02:24:35;;;;;;;8.23;3.38;;;10.90;99.90;;;;;;4237711;27;20063;-83
2022/06/04 02:26:38;;;;;;;8.05;3.17;;;10.90;99.90;;;;;;4238092;28;20086;-83
2022/06/04 02:28:39;;;;;;;12.07;3.38;;;10.90;99.90;;;;;;4237456;28;20043;-83
2022/06/04 02:30:47;;;;;;;6.78;2.95;;;10.90;99.90;;;;;;4236806;28;20035;-83
2022/06/04 02:33:12;;;;;;;8.48;3.28;;;10.80;99.90;;;;;;4236135;28;20048;-83
2022/06/04 02:35:21;;;;;;;7.57;3.83;;;10.90;99.90;;;;;;4218257;28;20085;-83
2022/06/04 02:37:31;;;;;;;8.45;3.08;;;10.80;99.90;;;;;;4250917;27;20046;-83
2022/06/04 02:39:37;;;;;;;8.95;3.30;;;10.80;99.90;;;;;;4256700;27;20403;-83
2022/06/04 02:41:50;;;;;;;6.63;3.45;;;10.80;99.90;;;;;;4258102;27;20095;-83
2022/06/04 02:43:55;;;;;;;7.90;3.63;;;10.80;99.90;;;;;;4221586;28;20052;-83
2022/06/04 02:46:09;;;;;;;7.70;3.60;;;10.80;99.90;;;;;;4256866;27;20525;-82
2022/06/04 02:48:36;;;;;;;9.07;3.00;;;10.80;99.90;;;;;;4258432;27;20047;-82
2022/06/04 02:50:48;;;;;;;7.38;3.60;;;10.80;99.90;;;;;;4267272;27;20043;-81
2022/06/04 02:52:51;;;;;;;9.52;3.50;;;10.90;99.90;;;;;;4268092;27;20071;-81
2022/06/04 02:54:56;;;;;;;11.80;3.55;;;10.90;99.90;;;;;;4268243;27;20043;-81
2022/06/04 02:56:58;;;;;;;8.52;3.05;;;10.90;99.90;;;;;;4269169;27;20114;-80
2022/06/04 02:59:04;;;;;;;12.30;3.83;;;10.80;99.90;;;;;;4268293;27;20062;-81
2022/06/04 03:01:08;;;;;;;10.80;3.38;;;10.80;99.90;;;;;;4268608;27;20031;-81
2022/06/04 03:03:14;;;;;;;7.82;3.40;;;10.80;99.90;;;;;;4269046;27;20043;-81
2022/06/04 03:05:18;;;;;;;8.27;3.33;;;10.80;99.90;;;;;;4267732;27;20039;-81
2022/06/04 03:07:25;;;;;;;9.15;3.78;;;10.80;99.90;;;;;;4232503;28;20192;-81
2022/06/04 03:09:26;;;;;;;6.72;3.17;;;10.80;99.90;;;;;;4252940;28;20051;-81
2022/06/04 03:11:27;;;;;;;9.05;3.20;;;10.80;99.90;;;;;;4268584;27;20046;-83
2022/06/04 03:13:29;;;;;;;6.63;3.60;;;10.80;99.90;;;;;;4267045;27;20043;-82
2022/06/04 03:15:32;;;;;;;9.85;3.75;;;10.80;99.90;;;;;;4262429;27;20098;-82
2022/06/04 03:17:33;;;;;;;5.57;3.17;;;10.70;99.90;;;;;;4255896;27;20372;-82
2022/06/04 03:19:34;;;;;;;10.02;4.03;;;10.70;99.90;;;;;;4248097;27;20124;-81
2022/06/04 03:21:36;;;;;;;10.02;4.13;;;10.70;99.90;;;;;;4218900;28;20052;-81
2022/06/04 03:23:37;;;;;;;8.65;4.13;;;10.70;99.90;;;;;;4240439;28;20099;-81
2022/06/04 03:25:40;;;;;;;5.35;3.60;;;10.60;99.90;;;;;;4252956;27;20123;-81
2022/06/04 03:27:48;;;;;;;9.35;4.47;;;10.70;99.90;;;;;;4240853;28;20055;-82
2022/06/04 03:29:49;;;;;;;10.60;3.65;;;10.70;99.90;;;;;;4238375;28;20066;-82
2022/06/04 03:31:50;;;;;;;8.05;3.45;;;10.70;99.90;;;;;;4242323;28;20054;-82
2022/06/04 03:33:51;;;;;;;7.38;3.60;;;10.70;99.90;;;;;;4242765;28;20040;-82
2022/06/04 03:35:55;;;;;;;13.10;3.38;;;10.80;99.90;;;;;;4240666;28;20056;-82
2022/06/04 03:37:56;;;;;;;5.50;3.05;;;10.80;99.90;;;;;;4244767;28;20047;-82
2022/06/04 03:39:58;;;;;;;6.18;3.47;;;10.80;99.90;;;;;;4242467;28;20043;-82
2022/06/04 03:42:01;;;;;;;8.38;3.72;;;10.80;99.90;;;;;;4222772;28;20116;-82
2022/06/04 03:44:04;;;;;;;9.25;3.17;;;10.70;99.90;;;;;;4237861;28;20046;-82
2022/06/04 03:46:05;;;;;;;5.95;3.47;;;10.70;99.90;;;;;;4237495;28;20044;-82
2022/06/04 03:48:06;;;;;;;5.38;3.65;;;10.70;99.90;;;;;;4238010;28;20046;-82
2022/06/04 03:50:13;;;;;;;7.32;3.20;;;10.70;99.90;;;;;;4236842;28;20493;-82
2022/06/04 03:52:15;;;;;;;10.77;3.40;;;10.70;99.90;;;;;;4238152;28;20058;-82
2022/06/04 03:54:17;;;;;;;9.93;3.28;;;10.70;99.90;;;;;;4218889;28;20036;-82
2022/06/04 03:56:19;;;;;;;4.65;2.65;;;10.70;99.90;;;;;;4237837;28;20100;-82
2022/06/04 03:58:20;;;;;;;8.68;3.15;;;10.70;99.90;;;;;;4239619;28;20143;-82
2022/06/04 04:00:31;;;;;;;8.30;3.13;;;10.70;99.90;;;;;;4224391;28;20052;-82
2022/06/04 04:02:33;;;;;;;5.22;3.35;;;10.70;99.90;;;;;;4221171;28;20484;-82
2022/06/04 04:04:33;;;;;;;9.05;2.88;;;10.70;99.90;;;;;;4219992;28;20044;-82
2022/06/04 04:06:34;;;;;;;4.68;2.80;;;10.70;99.90;;;;;;4220325;28;20095;-82
2022/06/04 04:08:37;;;;;;;4.85;3.25;;;10.80;99.90;;;;;;4242932;28;20507;-82
2022/06/04 04:10:41;;;;;;;5.75;2.72;;;10.80;99.90;;;;;;4241590;28;20047;-82
2022/06/04 04:12:42;;;;;;;8.73;2.88;;;10.80;99.90;;;;;;4238875;28;20108;-82
2022/06/04 04:14:43;;;;;;;11.45;3.17;;;10.80;99.90;;;;;;4217664;28;20039;-82
2022/06/04 04:16:44;;;;;;;5.65;3.20;;;10.80;99.90;;;;;;4235356;28;20047;-82
2022/06/04 04:18:45;;;;;;;5.65;3.10;;;10.80;99.90;;;;;;4219701;28;20480;-82
2022/06/04 04:20:48;;;;;;;5.53;2.95;;;10.80;99.90;;;;;;4238215;28;20047;-82
2022/06/04 04:22:49;;;;;;;6.07;2.85;;;10.80;99.90;;;;;;4252902;27;20177;-82
2022/06/04 04:24:50;;;;;;;6.65;2.65;;;10.80;99.90;;;;;;4254065;27;20081;-81
2022/06/04 04:26:51;;;;;;;6.75;3.00;;;10.80;99.90;;;;;;4252138;27;20047;-82
2022/06/04 04:28:54;;;;;;;6.15;3.08;;;10.90;99.90;;;;;;4254996;27;20483;-80
2022/06/04 04:30:56;;;;;;;4.15;2.58;;;10.90;99.90;;;;;;4253119;27;20040;-81
2022/06/04 04:32:59;;;;;;;8.77;2.60;;;10.90;99.90;;;;;;4251104;27;20070;-81
2022/06/04 04:35:02;;;;;;;5.43;2.85;;;11.00;99.90;;;;;;4233836;28;20104;-82
2022/06/04 04:37:03;;;;;;;7.95;2.90;;;11.00;99.90;;;;;;4241125;27;20044;-82
2022/06/04 04:39:04;;;;;;;7.13;3.75;;;11.00;99.90;;;;;;4217777;28;20039;-82
2022/06/04 04:41:09;;;;;;;7.22;2.90;;;11.00;99.90;;;;;;4248519;27;20047;-82
2022/06/04 04:43:11;;;;;;;5.30;2.63;;;11.10;99.90;;;;;;4249204;27;20047;-82
2022/06/04 04:45:12;;;;;;;7.32;3.03;;;11.10;99.90;;;;;;4249834;27;20043;-82
2022/06/04 04:47:13;;;;;;;8.65;3.20;;;11.20;99.90;;;;;;4249370;27;20099;-82
2022/06/04 04:49:13;;;;;;;7.28;3.33;;;11.20;99.90;;;;;;4230652;28;20483;-82
2022/06/04 04:51:18;;;;;;;7.65;2.50;;;11.30;99.90;;;;;;4250181;27;20051;-83
2022/06/04 04:53:20;;;;;;;7.13;3.50;;;11.30;99.90;;;;;;4233004;28;20043;-83
2022/06/04 04:55:21;;;;;;;5.93;3.45;;;11.40;99.90;;;;;;4250603;27;20039;-82
2022/06/04 04:57:22;;;;;;;7.22;3.10;;;11.40;99.90;;;;;;4250621;27;20035;-82
2022/06/04 04:59:23;;;;;;;8.52;3.50;;;11.50;99.90;;;;;;4232186;28;20048;-82
2022/06/04 05:01:26;;;;;;;7.90;3.53;;;11.50;99.90;;;;;;4251250;27;20042;-83
2022/06/04 05:03:27;;;;;;;6.90;3.47;;;11.60;99.90;;;;;;4250332;27;20495;-83
2022/06/04 05:05:28;;;;;;;4.90;3.00;;;11.60;99.90;;;;;;4215647;28;20048;-82
2022/06/04 05:07:29;;;;;;;7.15;3.50;;;11.70;99.90;;;;;;4248952;27;20090;-85
2022/06/04 05:09:30;;;;;;;8.18;3.35;;;11.80;99.90;;;;;;4230725;28;20047;-85
2022/06/04 05:11:32;;;;;;;8.23;3.30;;;11.80;99.90;;;;;;4231193;28;20104;-83
2022/06/04 05:13:33;;;;;;;4.45;2.97;;;11.90;99.90;;;;;;4245418;27;20078;-84
2022/06/04 05:15:34;;;;;;;7.00;3.33;;;11.90;99.90;;;;;;4240417;27;20395;-82
2022/06/04 05:17:35;;;;;;;7.53;3.20;;;12.00;99.90;;;;;;4249010;27;20479;-82
2022/06/04 05:19:36;;;;;;;8.20;3.10;;;12.10;99.90;;;;;;4240916;27;20100;-82
2022/06/04 05:21:43;;;;;;;5.45;2.92;;;12.20;99.90;;;;;;4231575;28;20455;-82
2022/06/04 05:23:44;;;;;;;6.13;2.97;;;12.30;99.90;;;;;;4231886;28;20525;-82
2022/06/04 05:25:45;;;;;;;7.32;3.95;;;12.30;99.90;;;;;;4222198;28;20054;-82
2022/06/04 05:27:46;;;;;;;6.72;2.88;;;12.40;99.90;;;;;;4248577;27;20122;-82
2022/06/04 05:29:47;;;;;;;5.50;3.03;;;12.50;99.90;;;;;;4248771;27;20047;-82
2022/06/04 05:31:47;;;;;;;5.55;3.00;;;12.60;99.90;;;;;;4246879;27;20526;-82
2022/06/04 05:33:48;;;;;;;6.35;2.78;;;12.60;99.90;;;;;;4237779;27;20103;-82
2022/06/04 05:35:49;;;;;;;3.88;2.75;;;12.70;99.90;;;;;;4239580;28;20044;-82
2022/06/04 05:37:49;;;;;;;5.65;3.08;;;12.80;99.90;;;;;;4219998;28;20043;-82
2022/06/04 05:39:50;;;;;;;6.82;3.53;;;12.80;99.90;;;;;;4251041;27;20037;-82
2022/06/04 05:41:51;;;;;;;4.93;3.10;;;12.90;99.90;;;;;;4257150;28;20039;-82
2022/06/04 05:43:53;;;;;;;6.85;3.03;;;13.00;99.90;;;;;;4251118;28;20096;-82
2022/06/04 05:46:03;;;;;;;5.38;3.20;;;13.00;99.90;;;;;;4253852;28;20047;-82
2022/06/04 05:48:04;;;;;;;7.72;3.45;;;13.00;99.90;;;;;;4253481;28;20487;-82
2022/06/04 05:50:06;;;;;;;8.60;3.15;;;13.10;99.90;;;;;;4238803;28;20036;-82
2022/06/04 05:52:06;;;;;;;5.68;3.00;;;13.20;99.90;;;;;;4239019;28;20040;-82
2022/06/04 05:54:08;;;;;;;9.85;3.05;;;13.20;99.90;;;;;;4253477;28;20077;-82
2022/06/04 05:56:11;;;;;;;5.82;3.10;;;13.30;99.90;;;;;;4253176;28;20056;-83
2022/06/04 05:58:12;;;;;;;5.72;3.00;;;13.40;99.90;;;;;;4219625;28;20048;-82
2022/06/04 06:00:18;;;;;;;6.57;3.40;;;13.40;99.90;;;;;;4256703;28;20054;-82
2022/06/04 06:02:22;;;;;;;6.60;3.10;;;13.50;99.90;;;;;;4255095;28;20058;-82
2022/06/04 06:04:31;;;;;;;5.63;2.70;;;13.60;99.90;;;;;;4256625;28;20039;-84
2022/06/04 06:06:33;;;;;;;5.78;3.15;;;13.70;99.90;;;;;;4251908;28;20047;-82
2022/06/04 06:08:35;;;;;;;12.13;3.38;;;13.80;99.90;;;;;;4240170;28;20306;-82
2022/06/04 06:10:45;;;;;;;5.50;3.10;;;13.90;99.90;;;;;;4257940;28;20051;-82
2022/06/04 06:12:46;;;;;;;7.18;2.38;;;14.10;99.90;;;;;;4251651;28;20095;-82
2022/06/04 06:14:47;;;;;;;4.75;2.70;;;14.20;99.90;;;;;;4250161;28;20475;-82
2022/06/04 06:16:50;;;;;;;5.65;2.58;;;14.40;99.90;;;;;;4249205;28;20035;-81
2022/06/04 06:18:51;;;;;;;12.57;3.53;;;14.40;99.90;;;;;;4230072;28;20101;-82
2022/06/04 06:20:52;;;;;;;9.77;3.78;;;14.50;99.90;;;;;;4248622;28;20043;-82
2022/06/04 06:22:52;;;;;;;3.83;2.80;;;14.50;99.90;;;;;;4248148;28;20074;-81
2022/06/04 06:24:53;;;;;;;4.78;2.78;;;14.70;99.90;;;;;;4248927;28;20378;-81
2022/06/04 06:26:57;;;;;;;3.83;2.85;;;14.90;99.90;;;;;;4248199;28;20518;-81
2022/06/04 06:29:04;;;;;;;8.27;3.22;;;15.00;99.90;;;;;;4248327;28;20043;-82
2022/06/04 06:31:08;;;;;;;5.50;3.13;;;15.20;99.90;;;;;;4252114;28;20065;-81
2022/06/04 06:33:08;;;;;;;4.78;3.00;;;15.40;99.90;;;;;;4264703;28;20039;-81
2022/06/04 06:35:10;;;;;;;5.07;2.55;;;15.50;99.90;;;;;;4264394;28;20550;-82
2022/06/04 06:37:10;;;;;;;5.22;2.75;;;15.60;99.90;;;;;;4264428;28;20440;-82
2022/06/04 06:39:12;;;;;;;3.85;2.58;;;15.70;99.60;;;;;;4263339;28;20051;-82
2022/06/04 06:41:19;;;;;;;7.03;2.45;;;15.90;99.40;;;;;;4264380;28;20027;-82
2022/06/04 06:43:22;;;;;;;5.05;2.50;;;15.90;99.00;;;;;;4247464;28;20085;-82
2022/06/04 06:45:23;;;;;;;5.20;2.22;;;16.00;98.80;;;;;;4265081;28;20065;-82
2022/06/04 06:47:24;;;;;;;5.10;2.10;;;16.10;99.00;;;;;;4247214;28;20043;-82
2022/06/04 06:49:28;;;;;;;6.45;2.60;;;16.20;98.50;;;;;;4263636;27;20043;-81
2022/06/04 06:51:38;;;;;;;5.95;3.20;;;16.20;98.30;;;;;;4259167;27;20062;-82
2022/06/04 06:53:39;;;;;;;4.63;1.98;;;16.20;98.10;;;;;;4259044;27;20050;-82
2022/06/04 06:55:40;;;;;;;5.05;2.45;;;16.20;98.10;;;;;;4265699;27;20039;-82
2022/06/04 06:57:41;;;;;;;6.80;2.55;;;16.10;98.00;;;;;;4263871;27;20131;-82
2022/06/04 06:59:43;;;;;;;3.70;2.40;;;16.00;97.90;;;;;;4256220;27;20043;-83
2022/06/04 07:01:44;;;;;;;5.00;2.75;;;15.90;97.80;;;;;;4265687;27;20057;-83
2022/06/04 07:03:44;;;;;;;5.50;2.67;;;15.80;98.00;;;;;;4262337;27;20065;-83
2022/06/04 07:05:53;;;;;;;4.70;2.63;;;15.70;98.00;;;;;;4257270;27;20042;-83
2022/06/04 07:07:53;;;;;;;4.50;2.40;;;16.10;98.10;;;;;;4268462;27;20043;-82
2022/06/04 07:09:55;;;;;;;4.95;2.45;;;15.40;98.10;;;;;;4263921;27;20077;-84
2022/06/04 07:11:56;;;;;;;6.93;2.67;;;15.40;98.20;;;;;;4256779;27;20072;-83
2022/06/04 07:13:57;;;;;;;3.78;1.98;;;15.40;98.30;;;;;;4245884;28;20055;-83
2022/06/04 07:15:58;;;;;;;3.47;2.30;;;15.50;98.30;;;;;;4251926;27;20118;-82
2022/06/04 07:17:59;;;;;;;6.40;2.47;;;15.60;98.30;;;;;;4252201;27;20544;-82
2022/06/04 07:19:59;;;;;;;3.97;2.25;;;15.80;97.70;;;;;;4232835;28;20130;-82
2022/06/04 07:22:00;;;;;;;3.75;2.10;;;16.00;97.40;;;;;;4251279;27;20062;-81
2022/06/04 07:24:01;;;;;;;5.40;2.58;;;16.20;97.20;;;;;;4216166;28;20071;-82
2022/06/04 07:26:03;;;;;;;4.22;2.42;;;16.30;96.80;;;;;;4250835;27;20050;-82
2022/06/04 07:28:05;;;;;;;7.30;2.42;;;16.40;96.60;;;;;;4250217;27;20039;-81
2022/06/04 07:30:06;;;;;;;9.43;2.20;;;16.50;96.30;;;;;;4232258;28;20083;-83
2022/06/04 07:32:09;;;;;;;5.60;2.35;;;16.60;96.00;;;;;;4250528;27;20039;-82
2022/06/04 07:34:10;;;;;;;5.25;2.72;;;16.70;95.80;;;;;;4251986;27;20124;-82
2022/06/04 07:36:21;;;;;;;5.20;2.10;;;16.80;95.60;;;;;;4249797;27;20042;-81
2022/06/04 07:38:21;;;;;;;2.88;1.90;;;17.00;95.30;;;;;;4226115;28;20052;-82
2022/06/04 07:40:22;;;;;;;3.60;1.90;;;17.10;95.10;;;;;;4250371;27;20086;-82
2022/06/04 07:42:23;;;;;;;6.63;2.05;;;17.30;94.90;;;;;;4232806;28;20074;-82
2022/06/04 07:44:25;;;;;;;8.38;3.03;;;17.40;94.60;;;;;;4250450;27;20616;-82
2022/06/04 07:46:28;;;;;;;5.60;2.15;;;17.50;94.30;;;;;;4232852;28;20069;-82
2022/06/04 07:48:29;;;;;;;8.02;1.90;;;17.60;94.10;;;;;;4232227;28;20119;-81
2022/06/04 07:50:30;;;;;;;8.32;2.00;;;17.70;93.90;;;;;;4232106;28;20051;-82
2022/06/04 07:52:31;;;;;;;3.80;1.77;;;17.80;93.60;;;;;;4250376;27;20039;-82
2022/06/04 07:54:31;;;;;;;5.55;2.10;;;18.00;93.30;;;;;;4249873;27;20097;-82
2022/06/04 07:56:32;;;;;;;5.40;1.90;;;18.00;93.10;;;;;;4249701;27;20039;-82
2022/06/04 07:58:34;;;;;;;2.63;1.77;;;18.10;92.90;;;;;;4250465;27;20043;-82
2022/06/04 08:00:38;;;;;;;4.15;2.33;;;18.10;92.80;;;;;;4250028;27;20555;-81
2022/06/04 08:02:41;;;;;;;7.95;2.28;;;18.10;92.60;;;;;;4250418;27;20075;-82
2022/06/04 08:04:42;;;;;;;4.97;2.03;;;18.10;92.50;;;;;;4250238;27;20078;-82
2022/06/04 08:06:43;;;;;;;7.78;2.22;;;18.10;92.40;;;;;;4232023;28;20043;-82
2022/06/04 08:08:50;;;;;;;4.45;1.75;;;18.30;92.50;;;;;;4250324;27;20077;-82
2022/06/04 08:10:51;;;;;;;3.10;1.80;;;18.40;91.90;;;;;;4250439;27;20043;-82
2022/06/04 08:12:55;;;;;;;4.07;1.85;;;;;;;;;;4250030;27;20039;-82
2022/06/04 08:14:57;;;;;;;7.63;2.25;;;;;;;;;;4250689;27;20043;-82
2022/06/04 08:17:00;;;;;;;2.45;1.80;;;;;;;;;;4250059;27;20126;-82
2022/06/04 08:19:01;;;;;;;3.90;2.20;;;;;;;;;;4232083;28;20452;-81
2022/06/04 08:21:05;;;;;;;2.80;1.80;;;;;;;;;;4250471;27;20062;-82
2022/06/04 08:23:06;;;;;;;3.58;1.95;;;;;;;;;;4251849;27;20057;-81
2022/06/04 08:25:07;;;;;;;4.00;1.75;;;;;;;;;;4249714;27;20039;-81
2022/06/04 08:27:08;;;;;;;2.75;1.45;;;;;;;;;;4232058;28;20050;-82
2022/06/04 08:29:09;;;;;;;4.97;2.00;;;;;;;;;;4250258;27;20039;-82
2022/06/04 08:31:13;;;;;;;5.32;1.67;;;;;;;;;;4249993;27;20043;-82
2022/06/04 08:33:14;;;;;;;7.72;1.52;;;;;;;;;;4240579;27;20056;-82
2022/06/04 08:35:15;;;;;;;4.28;1.67;;;;;;;;;;4215317;28;20061;-82
2022/06/04 08:37:16;;;;;;;3.92;1.90;;;;;;;;;;4233823;28;20044;-82
2022/06/04 08:39:18;;;;;;;4.85;1.80;;;;;;;;;;4233987;28;20053;-81
2022/06/04 08:41:42;;;;;;;4.57;2.25;;;;;;;;;;4233368;28;20111;-82
2022/06/04 08:43:49;;;;;;;3.28;1.90;;;;;;;;;;4185451;28;20093;-81
2022/06/04 08:45:51;;;;;;;3.88;1.80;;;18.50;92.00;;;;;;4233334;28;20051;-82
2022/06/04 08:47:53;;;;;;;5.20;1.90;;;20.40;85.50;;;;;;4233496;28;20040;-82
2022/06/04 08:50:10;;;;;;;6.53;1.80;;;20.40;84.00;;;;;;4232960;28;20036;-82
2022/06/04 08:52:16;;;;;;;7.40;1.90;;;20.60;83.10;;;;;;4215112;28;20528;-82
2022/06/04 08:59:18;;;;;;;8.65;1.70;;;21.10;82.00;;;;;;4232259;28;20077;-82
2022/06/04 09:01:43;;;;;;;3.08;1.75;;;21.20;80.60;;;;;;4232302;28;20063;-82
2022/06/04 09:04:00;;;;;;;2.78;1.60;;;21.30;80.10;;;;;;4231836;28;20515;-82
2022/06/04 09:06:15;;;;;;;2.10;1.50;;;21.50;77.50;;;;;;4232690;28;20084;-82
2022/06/04 09:08:29;;;;;;;2.50;1.50;;;21.50;78.20;;;;;;4232814;28;20054;-82
2022/06/04 09:10:57;;;;;;;4.78;1.50;;;21.60;78.20;;;;;;4213427;28;20066;-82
2022/06/04 09:13:15;;;;;;;1.73;1.52;;;21.70;77.70;;;;;;4231002;28;20123;-82
2022/06/04 09:15:31;;;;;;;3.55;1.85;;;21.80;77.80;;;;;;4231986;28;20507;-82
2022/06/04 09:17:44;;;;;;;3.75;1.40;;;21.90;75.30;;;;;;4214681;28;20492;-82
2022/06/04 09:19:54;;;;;;;3.22;1.73;;;22.00;75.60;;;;;;4235646;27;20433;-83
2022/06/04 09:21:57;;;;;;;2.47;1.38;;;22.10;75.30;;;;;;4248772;27;20058;-82
2022/06/04 09:23:58;;;;;;;2.30;1.50;;;22.20;75.30;;;;;;4230725;28;20084;-83
2022/06/04 09:26:01;;;;;;;4.18;1.45;;;;;;;;;;4248966;27;20514;-82
2022/06/04 09:28:25;;;;;;;3.78;1.40;;;;;;;;;;4249006;27;20047;-82
2022/06/04 09:30:28;;;;;;;3.53;1.55;;;;;;;;;;4210872;27;20047;-83
2022/06/04 09:32:44;;;;;;;2.13;1.50;;;;;;;;;;4246551;27;20050;-81
2022/06/04 09:34:47;;;;;;;3.47;1.10;;;;;;;;;;4232006;28;20043;-81
2022/06/04 09:36:49;;;;;;;4.65;1.70;;;;;;;;;;4232391;28;20055;-81
2022/06/04 09:39:13;;;;;;;2.58;1.38;;;;;;;;;;4232472;28;20043;-81
2022/06/04 09:41:19;;;;;;;2.25;1.20;;;;;;;;;;4246672;27;20147;-81
2022/06/04 09:43:20;;;;;;;2.28;1.20;;;;;;;;;;4230614;28;20502;-81
2022/06/04 09:45:26;;;;;;;2.10;1.65;;;;;;;;;;4249794;28;20104;-81
2022/06/04 09:47:33;;;;;;;2.55;1.20;;;;;;;;;;4248828;28;20483;-80
2022/06/04 09:49:34;;;;;;;3.38;1.25;;;;;;;;;;4249191;28;20395;-81
2022/06/04 09:51:40;;;;;;;3.60;1.40;;;;;;;;;;4248420;28;20514;-81
2022/06/04 09:53:46;;;;;;;1.92;1.52;;;;;;;;;;4248919;28;20122;-81
2022/06/04 09:55:56;;;;;;;4.75;2.20;;;;;;;;;;4248254;27;20053;-81
2022/06/04 09:58:19;;;;;;;2.92;1.70;;;;;;;;;;4248913;28;20054;-81
2022/06/04 10:00:22;;;;;;;3.33;1.40;;;;;;;;;;4248868;28;20039;-82
2022/06/04 10:02:24;;;;;;;4.97;1.45;;;;;;;;;;4248700;28;20072;-82
2022/06/04 10:04:35;;;;;;;4.90;1.63;;;;;;;;;;4248805;28;20118;-82
2022/06/04 10:06:36;;;;;;;6.13;1.48;;;;;;;;;;4248609;28;20039;-82
2022/06/04 10:11:01;;;;;;;3.92;1.52;;;;;;;;;;4249159;28;20499;-82
2022/06/04 10:15:33;;;;;;;5.95;2.10;;;;;;;;;;4248758;28;20055;-81
2022/06/04 10:17:37;;;;;;;6.55;1.95;;;;;;;;;;4248676;28;20433;-82
2022/06/04 10:19:39;;;;;;;3.75;1.60;;;;;;;;;;4248944;28;20402;-81
2022/06/04 10:21:42;;;;;;;3.00;1.50;;;;;;;;;;4248478;28;20579;-82
2022/06/04 10:23:48;;;;;;;9.18;2.08;;;;;;;;;;4249523;27;20055;-81
2022/06/04 10:26:02;;;;;;;2.42;1.70;;;;;;;;;;4251603;27;20225;-81
2022/06/04 10:28:10;;;;;;;5.50;1.85;;;;;;;;;;4233329;28;20126;-81
2022/06/04 10:30:14;;;;;;;2.55;1.40;;;;;;;;;;4251960;27;20043;-81
2022/06/04 10:32:31;;;;;;;6.10;1.50;;;;;;;;;;4251921;27;20047;-81
2022/06/04 10:34:35;;;;;;;2.33;1.90;;;;;;;;;;4251809;27;20050;-81
2022/06/04 10:36:55;;;;;;;3.28;1.80;;;;;;;;;;4251649;27;20119;-81
2022/06/04 10:38:56;;;;;;;2.90;1.50;;;;;;;;;;4251548;27;20047;-82
2022/06/04 10:41:05;;;;;;;3.03;1.60;;;;;;;;;;4233681;28;20526;-81
2022/06/04 10:43:19;;;;;;;4.80;1.60;;;;;;;;;;4252260;27;20449;-81
2022/06/04 10:45:24;;;;;;;2.10;1.27;;;;;;;;;;4252123;27;20047;-81
2022/06/04 10:47:35;;;;;;;5.22;1.80;;;;;;;;;;4252188;27;20085;-82
2022/06/04 10:50:06;;;;;;;3.10;1.65;;;;;;;;;;4218316;28;20393;-81
2022/06/04 10:52:25;;;;;;;2.88;1.45;;;;;;;;;;4230395;27;20082;-82
2022/06/04 10:54:27;;;;;;;3.53;1.65;;;;;;;;;;4251650;27;20043;-82
2022/06/04 10:56:29;;;;;;;2.83;2.00;;;;;;;;;;4251813;27;20395;-81
2022/06/04 10:58:54;;;;;;;6.38;2.58;;;;;;;;;;4251216;27;20054;-81
2022/06/04 11:01:00;;;;;;;4.25;1.65;;;;;;;;;;4221333;28;20534;-81
2022/06/04 11:03:05;;;;;;;3.70;1.85;;;;;;;;;;4251295;27;20376;-81
2022/06/04 11:05:14;;;;;;;2.78;1.40;;;;;;;;;;4251413;27;20046;-82
2022/06/04 11:07:15;;;;;;;2.58;1.50;;;;;;;;;;4233555;28;20043;-81
2022/06/04 11:09:22;;;;;;;4.50;1.70;;;;;;;;;;4232884;28;20483;-82
2022/06/04 11:11:34;;;;;;;4.25;1.42;;;;;;;;;;4250225;27;20081;-82
2022/06/04 11:13:41;;;;;;;4.80;1.60;;;;;;;;;;4216414;28;20052;-82
2022/06/04 11:15:47;;;;;;;4.00;1.70;;;;;;;;;;4250694;27;20513;-82
2022/06/04 11:17:55;;;;;;;5.00;1.50;;;;;;;;;;4234696;27;20377;-82
2022/06/04 11:20:10;;;;;;;5.85;2.10;;;;;;;;;;4216020;28;20043;-82
2022/06/04 11:22:11;;;;;;;4.03;1.50;;;;;;;;;;4233616;28;20063;-81
2022/06/04 11:24:15;;;;;;;3.33;1.58;;;;;;;;;;4233525;28;20500;-81
2022/06/04 11:26:20;;;;;;;3.13;1.60;;;;;;;;;;4234095;28;20092;-81
2022/06/04 11:28:26;;;;;;;6.38;2.00;;;;;;;;;;4233578;28;20039;-82
2022/06/04 11:30:30;;;;;;;4.75;1.60;;;;;;;;;;4233194;28;20410;-81
2022/06/04 11:32:56;;;;;;;4.15;2.00;;;;;;;;;;4233270;28;20502;-81